sensor_id;sensor_type;location;lat;lon;timestamp;pressure;altitude;pressure_sealevel;temperature;humidity
11448;BME280;43755;49.736;8.734;2024-03-17T00:01:17;98613.22;;;5.62;100.00
11448;BME280;43755;49.736;8.734;2024-03-17T00:03:20;98607.09;;;5.63;100.00
11448;BME280;43755;49.736;8.734;2024-03-17T00:05:21;98606.22;;;5.64;100.00
11448;BME280;43755;49.736;8.734;2024-03-17T00:07:22;98613.28;;;5.59;100.00
11448;BME280;43755;49.736;8.734;2024-03-17T00:09:23;98608.94;;;5.56;100.00
11448;BME280;43755;49.736;8.734;2024-03-17T00:11:25;98606.28;;;5.59;100.00
11448;BME280;43755;49.736;8.734;2024-03-17T00:13:26;98610.63;;;5.60;100.00
11448;BME280;43755;49.736;8.734;2024-03-17T00:15:27;98610.66;;;5.59;100.00
11448;BME280;43755;49.736;8.734;2024-03-17T00:17:28;98608.94;;;5.55;100.00
11448;BME280;43755;49.736;8.734;2024-03-17T00:19:31;98607.31;;;5.48;100.00
11448;BME280;43755;49.736;8.734;2024-03-17T00:21:32;98609.09;;;5.46;100.00
11448;BME280;43755;49.736;8.734;2024-03-17T00:23:33;98605.59;;;5.44;100.00
11448;BME280;43755;49.736;8.734;2024-03-17T00:25:34;98606.47;;;5.44;100.00
11448;BME280;43755;49.736;8.734;2024-03-17T00:27:36;98598.59;;;5.46;100.00
11448;BME280;43755;49.736;8.734;2024-03-17T00:29:40;98607.31;;;5.48;100.00
11448;BME280;43755;49.736;8.734;2024-03-17T00:31:41;98602.97;;;5.45;100.00
11448;BME280;43755;49.736;8.734;2024-03-17T00:33:42;98597.78;;;5.41;100.00
11448;BME280;43755;49.736;8.734;2024-03-17T00:35:45;98587.31;;;5.36;100.00
11448;BME280;43755;49.736;8.734;2024-03-17T00:37:46;98586.56;;;5.28;100.00
11448;BME280;43755;49.736;8.734;2024-03-17T00:39:49;98585.72;;;5.26;100.00
11448;BME280;43755;49.736;8.734;2024-03-17T00:41:50;98582.28;;;5.19;100.00
11448;BME280;43755;49.736;8.734;2024-03-17T00:43:51;98580.59;;;5.17;100.00
11448;BME280;43755;49.736;8.734;2024-03-17T00:45:52;98586.78;;;5.11;100.00
11448;BME280;43755;49.736;8.734;2024-03-17T00:47:54;98585.09;;;5.06;100.00
11448;BME280;43755;49.736;8.734;2024-03-17T00:49:54;98586.00;;;5.02;100.00
11448;BME280;43755;49.736;8.734;2024-03-17T00:51:57;98576.44;;;4.99;100.00
11448;BME280;43755;49.736;8.734;2024-03-17T00:53:58;98576.56;;;4.85;100.00
11448;BME280;43755;49.736;8.734;2024-03-17T00:55:59;98583.63;;;4.79;100.00
11448;BME280;43755;49.736;8.734;2024-03-17T00:58:01;98574.94;;;4.75;100.00
11448;BME280;43755;49.736;8.734;2024-03-17T01:00:04;98581.13;;;4.68;100.00
11448;BME280;43755;49.736;8.734;2024-03-17T01:02:05;98573.28;;;4.67;100.00
11448;BME280;43755;49.736;8.734;2024-03-17T01:04:06;98584.69;;;4.60;100.00
11448;BME280;43755;49.736;8.734;2024-03-17T01:06:07;98587.31;;;4.60;100.00
11448;BME280;43755;49.736;8.734;2024-03-17T01:08:10;98578.63;;;4.54;100.00
11448;BME280;43755;49.736;8.734;2024-03-17T01:10:11;98579.59;;;4.47;100.00
11448;BME280;43755;49.736;8.734;2024-03-17T01:12:12;98568.25;;;4.42;100.00
11448;BME280;43755;49.736;8.734;2024-03-17T01:14:13;98574.31;;;4.50;100.00
11448;BME280;43755;49.736;8.734;2024-03-17T01:16:15;98570.81;;;4.53;100.00
11448;BME280;43755;49.736;8.734;2024-03-17T01:18:16;98560.28;;;4.54;100.00
11448;BME280;43755;49.736;8.734;2024-03-17T01:20:17;98557.66;;;4.56;100.00
11448;BME280;43755;49.736;8.734;2024-03-17T01:22:18;98563.72;;;4.60;100.00
11448;BME280;43755;49.736;8.734;2024-03-17T01:24:21;98566.34;;;4.63;100.00
11448;BME280;43755;49.736;8.734;2024-03-17T01:26:21;98548.91;;;4.59;100.00
11448;BME280;43755;49.736;8.734;2024-03-17T01:28:24;98556.78;;;4.57;100.00
11448;BME280;43755;49.736;8.734;2024-03-17T01:30:24;98558.59;;;4.50;100.00
11448;BME280;43755;49.736;8.734;2024-03-17T01:32:26;98557.78;;;4.45;100.00
11448;BME280;43755;49.736;8.734;2024-03-17T01:34:26;98556.03;;;4.44;100.00
11448;BME280;43755;49.736;8.734;2024-03-17T01:36:28;98556.06;;;4.41;100.00
11448;BME280;43755;49.736;8.734;2024-03-17T01:38:29;98549.09;;;4.40;100.00
11448;BME280;43755;49.736;8.734;2024-03-17T01:40:32;98551.72;;;4.39;100.00
11448;BME280;43755;49.736;8.734;2024-03-17T01:42:32;98550.91;;;4.35;100.00
11448;BME280;43755;49.736;8.734;2024-03-17T01:44:34;98541.34;;;4.30;100.00
11448;BME280;43755;49.736;8.734;2024-03-17T01:46:34;98543.97;;;4.28;100.00
11448;BME280;43755;49.736;8.734;2024-03-17T01:48:36;98538.72;;;4.27;100.00
11448;BME280;43755;49.736;8.734;2024-03-17T01:50:37;98543.16;;;4.20;100.00
11448;BME280;43755;49.736;8.734;2024-03-17T01:52:39;98545.88;;;4.11;100.00
11448;BME280;43755;49.736;8.734;2024-03-17T01:54:40;98543.25;;;4.11;100.00
11448;BME280;43755;49.736;8.734;2024-03-17T01:56:44;98538.09;;;4.00;100.00
11448;BME280;43755;49.736;8.734;2024-03-17T01:58:45;98536.41;;;3.93;100.00
11448;BME280;43755;49.736;8.734;2024-03-17T02:00:47;98530.38;;;3.85;100.00
11448;BME280;43755;49.736;8.734;2024-03-17T02:02:47;98535.59;;;3.84;100.00
11448;BME280;43755;49.736;8.734;2024-03-17T02:04:49;98525.13;;;3.84;100.00
11448;BME280;43755;49.736;8.734;2024-03-17T02:06:50;98526.97;;;3.72;100.00
11448;BME280;43755;49.736;8.734;2024-03-17T02:08:53;98519.16;;;3.68;100.00
11448;BME280;43755;49.736;8.734;2024-03-17T02:10:54;98524.44;;;3.63;100.00
11448;BME280;43755;49.736;8.734;2024-03-17T02:12:58;98512.25;;;3.56;100.00
11448;BME280;43755;49.736;8.734;2024-03-17T02:14:59;98519.22;;;3.56;100.00
11448;BME280;43755;49.736;8.734;2024-03-17T02:17:00;98511.47;;;3.45;100.00
11448;BME280;43755;49.736;8.734;2024-03-17T02:19:01;98506.22;;;3.44;100.00
11448;BME280;43755;49.736;8.734;2024-03-17T02:21:02;98506.28;;;3.39;100.00
11448;BME280;43755;49.736;8.734;2024-03-17T02:23:05;98503.63;;;3.42;100.00
11448;BME280;43755;49.736;8.734;2024-03-17T02:25:06;98501.94;;;3.34;100.00
11448;BME280;43755;49.736;8.734;2024-03-17T02:27:08;98506.38;;;3.24;100.00
11448;BME280;43755;49.736;8.734;2024-03-17T02:29:09;98502.09;;;3.09;100.00
11448;BME280;43755;49.736;8.734;2024-03-17T02:31:12;98503.06;;;2.85;100.00
11448;BME280;43755;49.736;8.734;2024-03-17T02:33:13;98506.59;;;2.81;100.00
11448;BME280;43755;49.736;8.734;2024-03-17T02:35:15;98500.47;;;2.78;100.00
11448;BME280;43755;49.736;8.734;2024-03-17T02:37:16;98504.84;;;2.80;100.00
11448;BME280;43755;49.736;8.734;2024-03-17T02:39:19;98507.44;;;2.79;100.00
11448;BME280;43755;49.736;8.734;2024-03-17T02:41:34;98503.16;;;2.63;100.00
11448;BME280;43755;49.736;8.734;2024-03-17T02:43:36;98504.94;;;2.50;100.00
11448;BME280;43755;49.736;8.734;2024-03-17T02:45:36;98498.84;;;2.51;100.00
11448;BME280;43755;49.736;8.734;2024-03-17T02:47:38;98493.59;;;2.59;100.00
11448;BME280;43755;49.736;8.734;2024-03-17T02:49:40;98493.59;;;2.63;100.00
11448;BME280;43755;49.736;8.734;2024-03-17T02:51:44;98494.44;;;2.67;100.00
11448;BME280;43755;49.736;8.734;2024-03-17T02:53:46;98490.09;;;2.64;100.00
11448;BME280;43755;49.736;8.734;2024-03-17T02:55:48;98487.47;;;2.67;100.00
11448;BME280;43755;49.736;8.734;2024-03-17T02:57:50;98487.47;;;2.66;100.00
11448;BME280;43755;49.736;8.734;2024-03-17T02:59:52;98484.00;;;2.61;100.00
11448;BME280;43755;49.736;8.734;2024-03-17T03:01:53;98491.88;;;2.59;100.00
11448;BME280;43755;49.736;8.734;2024-03-17T03:03:54;98488.34;;;2.62;100.00
11448;BME280;43755;49.736;8.734;2024-03-17T03:05:56;98493.59;;;2.59;100.00
11448;BME280;43755;49.736;8.734;2024-03-17T03:07:57;98494.47;;;2.59;100.00
11448;BME280;43755;49.736;8.734;2024-03-17T03:09:59;98497.97;;;2.57;100.00
11448;BME280;43755;49.736;8.734;2024-03-17T03:12:02;98496.22;;;2.51;100.00
11448;BME280;43755;49.736;8.734;2024-03-17T03:14:03;98492.78;;;2.46;100.00
11448;BME280;43755;49.736;8.734;2024-03-17T03:16:06;98493.66;;;2.40;100.00
11448;BME280;43755;49.736;8.734;2024-03-17T03:18:08;98489.31;;;2.41;100.00
11448;BME280;43755;49.736;8.734;2024-03-17T03:20:09;98492.78;;;2.41;100.00
11448;BME280;43755;49.736;8.734;2024-03-17T03:22:12;98493.66;;;2.37;100.00
11448;BME280;43755;49.736;8.734;2024-03-17T03:24:13;98496.25;;;2.39;100.00
11448;BME280;43755;49.736;8.734;2024-03-17T03:26:15;98491.91;;;2.38;100.00
11448;BME280;43755;49.736;8.734;2024-03-17T03:28:18;98489.28;;;2.38;100.00
11448;BME280;43755;49.736;8.734;2024-03-17T03:30:19;98492.78;;;2.38;100.00
11448;BME280;43755;49.736;8.734;2024-03-17T03:32:21;98489.28;;;2.36;100.00
11448;BME280;43755;49.736;8.734;2024-03-17T03:34:23;98491.06;;;2.33;100.00
11448;BME280;43755;49.736;8.734;2024-03-17T03:36:25;98498.91;;;2.28;100.00
11448;BME280;43755;49.736;8.734;2024-03-17T03:38:26;98491.97;;;2.17;100.00
11448;BME280;43755;49.736;8.734;2024-03-17T03:40:28;98498.94;;;2.16;100.00
11448;BME280;43755;49.736;8.734;2024-03-17T03:42:28;98499.78;;;2.14;100.00
11448;BME280;43755;49.736;8.734;2024-03-17T03:44:31;98505.03;;;2.06;100.00
11448;BME280;43755;49.736;8.734;2024-03-17T03:46:33;98505.03;;;2.03;100.00
11448;BME280;43755;49.736;8.734;2024-03-17T03:48:35;98498.94;;;2.05;100.00
11448;BME280;43755;49.736;8.734;2024-03-17T03:50:37;98494.59;;;2.11;100.00
11448;BME280;43755;49.736;8.734;2024-03-17T03:52:39;98495.44;;;2.17;100.00
11448;BME280;43755;49.736;8.734;2024-03-17T03:54:40;98498.91;;;2.25;100.00
11448;BME280;43755;49.736;8.734;2024-03-17T03:56:42;98493.66;;;2.30;100.00
11448;BME280;43755;49.736;8.734;2024-03-17T03:58:44;98500.63;;;2.32;100.00
11448;BME280;43755;49.736;8.734;2024-03-17T04:00:48;98493.66;;;2.34;100.00
11448;BME280;43755;49.736;8.734;2024-03-17T04:02:49;98491.03;;;2.36;100.00
11448;BME280;43755;49.736;8.734;2024-03-17T04:04:51;98500.59;;;2.37;100.00
11448;BME280;43755;49.736;8.734;2024-03-17T04:06:53;98493.63;;;2.43;100.00
11448;BME280;43755;49.736;8.734;2024-03-17T04:08:54;98491.88;;;2.48;100.00
11448;BME280;43755;49.736;8.734;2024-03-17T04:10:56;98497.97;;;2.52;100.00
11448;BME280;43755;49.736;8.734;2024-03-17T04:12:57;98502.34;;;2.47;100.00
11448;BME280;43755;49.736;8.734;2024-03-17T04:14:59;98499.75;;;2.47;100.00
11448;BME280;43755;49.736;8.734;2024-03-17T04:17:01;98491.91;;;2.45;100.00
11448;BME280;43755;49.736;8.734;2024-03-17T04:19:03;98502.34;;;2.42;100.00
11448;BME280;43755;49.736;8.734;2024-03-17T04:21:05;98505.00;;;2.35;100.00
11448;BME280;43755;49.736;8.734;2024-03-17T04:23:08;98501.50;;;2.27;100.00
11448;BME280;43755;49.736;8.734;2024-03-17T04:25:13;98500.63;;;2.26;100.00
11448;BME280;43755;49.736;8.734;2024-03-17T04:27:14;98497.16;;;2.27;100.00
11448;BME280;43755;49.736;8.734;2024-03-17T04:29:16;98498.91;;;2.25;100.00
11448;BME280;43755;49.736;8.734;2024-03-17T04:31:16;98491.97;;;2.23;100.00
11448;BME280;43755;49.736;8.734;2024-03-17T04:33:19;98490.22;;;2.20;100.00
11448;BME280;43755;49.736;8.734;2024-03-17T04:35:21;98499.81;;;2.17;100.00
11448;BME280;43755;49.736;8.734;2024-03-17T04:37:22;98490.22;;;2.17;100.00
11448;BME280;43755;49.736;8.734;2024-03-17T04:39:24;98491.97;;;2.17;100.00
11448;BME280;43755;49.736;8.734;2024-03-17T04:41:26;98494.56;;;2.21;100.00
11448;BME280;43755;49.736;8.734;2024-03-17T04:43:28;98487.59;;;2.20;100.00
11448;BME280;43755;49.736;8.734;2024-03-17T04:45:30;98499.78;;;2.21;100.00
11448;BME280;43755;49.736;8.734;2024-03-17T04:47:31;98496.31;;;2.21;100.00
11448;BME280;43755;49.736;8.734;2024-03-17T04:49:36;98503.28;;;2.02;100.00
11448;BME280;43755;49.736;8.734;2024-03-17T04:51:37;98502.41;;;1.91;100.00
11448;BME280;43755;49.736;8.734;2024-03-17T04:53:38;98507.66;;;1.88;100.00
11448;BME280;43755;49.736;8.734;2024-03-17T04:55:41;98510.25;;;1.86;100.00
11448;BME280;43755;49.736;8.734;2024-03-17T04:57:43;98505.03;;;1.80;100.00
11448;BME280;43755;49.736;8.734;2024-03-17T04:59:44;98501.56;;;1.75;100.00
11448;BME280;43755;49.736;8.734;2024-03-17T05:01:46;98499.81;;;1.74;100.00
11448;BME280;43755;49.736;8.734;2024-03-17T05:03:51;98498.94;;;1.74;100.00
11448;BME280;43755;49.736;8.734;2024-03-17T05:05:59;98505.91;;;1.76;100.00
11448;BME280;43755;49.736;8.734;2024-03-17T05:08:04;98499.81;;;1.73;100.00
11448;BME280;43755;49.736;8.734;2024-03-17T05:10:06;98499.84;;;1.70;100.00
11448;BME280;43755;49.736;8.734;2024-03-17T05:12:08;98500.69;;;1.73;100.00
11448;BME280;43755;49.736;8.734;2024-03-17T05:14:09;98504.19;;;1.81;100.00
11448;BME280;43755;49.736;8.734;2024-03-17T05:16:11;98495.47;;;1.93;100.00
11448;BME280;43755;49.736;8.734;2024-03-17T05:18:12;98491.13;;;1.90;100.00
11448;BME280;43755;49.736;8.734;2024-03-17T05:20:14;98501.56;;;1.98;100.00
11448;BME280;43755;49.736;8.734;2024-03-17T05:22:17;98496.31;;;2.02;100.00
11448;BME280;43755;49.736;8.734;2024-03-17T05:24:17;98499.81;;;1.97;100.00
11448;BME280;43755;49.736;8.734;2024-03-17T05:26:19;98496.31;;;2.02;100.00
11448;BME280;43755;49.736;8.734;2024-03-17T05:28:21;98492.84;;;2.00;100.00
11448;BME280;43755;49.736;8.734;2024-03-17T05:30:22;98485.91;;;1.93;100.00
11448;BME280;43755;49.736;8.734;2024-03-17T05:32:26;98493.72;;;1.90;100.00
11448;BME280;43755;49.736;8.734;2024-03-17T05:34:26;98505.91;;;1.88;100.00
11448;BME280;43755;49.736;8.734;2024-03-17T05:36:28;98497.22;;;1.91;100.00
11448;BME280;43755;49.736;8.734;2024-03-17T05:38:33;98498.94;;;1.96;100.00
11448;BME280;43755;49.736;8.734;2024-03-17T05:40:35;98500.69;;;1.96;100.00
11448;BME280;43755;49.736;8.734;2024-03-17T05:42:41;98494.59;;;1.97;100.00
11448;BME280;43755;49.736;8.734;2024-03-17T05:44:43;98496.34;;;1.98;100.00
11448;BME280;43755;49.736;8.734;2024-03-17T05:46:50;98500.69;;;2.02;100.00
11448;BME280;43755;49.736;8.734;2024-03-17T05:48:53;98503.28;;;2.03;100.00
11448;BME280;43755;49.736;8.734;2024-03-17T05:50:54;98503.28;;;2.08;100.00
11448;BME280;43755;49.736;8.734;2024-03-17T05:52:55;98498.06;;;2.14;100.00
11448;BME280;43755;49.736;8.734;2024-03-17T05:54:57;98493.69;;;2.28;100.00
11448;BME280;43755;49.736;8.734;2024-03-17T05:56:59;98499.78;;;2.29;100.00
11448;BME280;43755;49.736;8.734;2024-03-17T05:59:00;98498.91;;;2.25;100.00
11448;BME280;43755;49.736;8.734;2024-03-17T06:01:02;98505.84;;;2.25;100.00
11448;BME280;43755;49.736;8.734;2024-03-17T06:03:03;98500.63;;;2.26;100.00
11448;BME280;43755;49.736;8.734;2024-03-17T06:05:06;98491.06;;;2.28;100.00
11448;BME280;43755;49.736;8.734;2024-03-17T06:07:10;98491.03;;;2.36;100.00
11448;BME280;43755;49.736;8.734;2024-03-17T06:09:12;98488.44;;;2.39;100.00
11448;BME280;43755;49.736;8.734;2024-03-17T06:11:19;98487.53;;;2.49;100.00
11448;BME280;43755;49.736;8.734;2024-03-17T06:13:20;98488.34;;;2.60;100.00
11448;BME280;43755;49.736;8.734;2024-03-17T06:15:21;98490.91;;;2.78;100.00
11448;BME280;43755;49.736;8.734;2024-03-17T06:17:23;98494.31;;;2.97;100.00
11448;BME280;43755;49.736;8.734;2024-03-17T06:19:25;98495.16;;;2.95;100.00
11448;BME280;43755;49.736;8.734;2024-03-17T06:21:26;98496.06;;;2.91;100.00
11448;BME280;43755;49.736;8.734;2024-03-17T06:23:27;98494.28;;;3.02;100.00
11448;BME280;43755;49.736;8.734;2024-03-17T06:25:29;98489.00;;;3.08;100.00
11448;BME280;43755;49.736;8.734;2024-03-17T06:27:30;98482.84;;;3.21;100.00
11448;BME280;43755;49.736;8.734;2024-03-17T06:29:34;98485.44;;;3.27;100.00
11448;BME280;43755;49.736;8.734;2024-03-17T06:31:35;98479.28;;;3.33;100.00
11448;BME280;43755;49.736;8.734;2024-03-17T06:33:37;98478.38;;;3.41;100.00
11448;BME280;43755;49.736;8.734;2024-03-17T06:35:37;98472.16;;;3.56;100.00
11448;BME280;43755;49.736;8.734;2024-03-17T06:37:39;98472.06;;;3.66;100.00
11448;BME280;43755;49.736;8.734;2024-03-17T06:39:40;98487.66;;;3.80;100.00
11448;BME280;43755;49.736;8.734;2024-03-17T06:41:42;98484.09;;;3.89;100.00
11448;BME280;43755;49.736;8.734;2024-03-17T06:43:45;98487.50;;;3.97;100.00
11448;BME280;43755;49.736;8.734;2024-03-17T06:45:56;98481.41;;;3.98;100.00
11448;BME280;43755;49.736;8.734;2024-03-17T06:47:58;98485.72;;;4.02;100.00
11448;BME280;43755;49.736;8.734;2024-03-17T06:49:59;98482.22;;;4.04;100.00
11448;BME280;43755;49.736;8.734;2024-03-17T06:52:01;98471.69;;;4.10;100.00
11448;BME280;43755;49.736;8.734;2024-03-17T06:54:01;98476.06;;;4.07;100.00
11448;BME280;43755;49.736;8.734;2024-03-17T06:56:04;98481.28;;;4.08;100.00
11448;BME280;43755;49.736;8.734;2024-03-17T06:58:06;98476.94;;;4.09;100.00
11448;BME280;43755;49.736;8.734;2024-03-17T07:00:09;98469.00;;;4.15;100.00
11448;BME280;43755;49.736;8.734;2024-03-17T07:02:14;98470.72;;;4.19;100.00
11448;BME280;43755;49.736;8.734;2024-03-17T07:04:17;98475.88;;;4.25;100.00
11448;BME280;43755;49.736;8.734;2024-03-17T07:06:21;98472.41;;;4.25;100.00
11448;BME280;43755;49.736;8.734;2024-03-17T07:08:23;98468.88;;;4.29;100.00
11448;BME280;43755;49.736;8.734;2024-03-17T07:10:25;98467.03;;;4.38;100.00
11448;BME280;43755;49.736;8.734;2024-03-17T07:12:26;98464.31;;;4.46;100.00
11448;BME280;43755;49.736;8.734;2024-03-17T07:14:28;98465.19;;;4.46;100.00
11448;BME280;43755;49.736;8.734;2024-03-17T07:16:33;98459.84;;;4.57;100.00
11448;BME280;43755;49.736;8.734;2024-03-17T07:18:35;98462.31;;;4.66;100.00
11448;BME280;43755;49.736;8.734;2024-03-17T07:20:37;98465.69;;;4.77;100.00
11448;BME280;43755;49.736;8.734;2024-03-17T07:22:39;98455.03;;;4.91;100.00
11448;BME280;43755;49.736;8.734;2024-03-17T07:24:40;98465.34;;;5.06;100.00
11448;BME280;43755;49.736;8.734;2024-03-17T07:26:44;98464.31;;;5.16;100.00
11448;BME280;43755;49.736;8.734;2024-03-17T07:28:46;98465.03;;;5.27;100.00
11448;BME280;43755;49.736;8.734;2024-03-17T07:30:48;98474.47;;;5.41;100.00
11448;BME280;43755;49.736;8.734;2024-03-17T07:32:51;98469.81;;;5.59;100.00
11448;BME280;43755;49.736;8.734;2024-03-17T07:34:52;98469.47;;;5.77;100.00
11448;BME280;43755;49.736;8.734;2024-03-17T07:36:54;98464.91;;;5.93;100.00
11448;BME280;43755;49.736;8.734;2024-03-17T07:38:56;98461.09;;;6.09;100.00
11448;BME280;43755;49.736;8.734;2024-03-17T07:40:59;98457.31;;;6.26;100.00
11448;BME280;43755;49.736;8.734;2024-03-17T07:43:01;98472.81;;;6.41;100.00
11448;BME280;43755;49.736;8.734;2024-03-17T07:45:03;98461.97;;;6.57;100.00
11448;BME280;43755;49.736;8.734;2024-03-17T07:47:05;98465.22;;;6.70;100.00
11448;BME280;43755;49.736;8.734;2024-03-17T07:49:07;98469.25;;;6.86;100.00
11448;BME280;43755;49.736;8.734;2024-03-17T07:51:10;98463.63;;;7.05;100.00
11448;BME280;43755;49.736;8.734;2024-03-17T07:53:12;98470.44;;;7.13;100.00
11448;BME280;43755;49.736;8.734;2024-03-17T07:55:13;98465.00;;;7.22;100.00
11448;BME280;43755;49.736;8.734;2024-03-17T07:57:15;98465.72;;;7.29;100.00
11448;BME280;43755;49.736;8.734;2024-03-17T07:59:17;98458.63;;;7.32;100.00
11448;BME280;43755;49.736;8.734;2024-03-17T08:01:18;98455.94;;;7.34;100.00
11448;BME280;43755;49.736;8.734;2024-03-17T08:03:20;98456.72;;;7.39;100.00
11448;BME280;43755;49.736;8.734;2024-03-17T08:05:22;98458.44;;;7.40;100.00
11448;BME280;43755;49.736;8.734;2024-03-17T08:07:23;98456.84;;;7.33;100.00
11448;BME280;43755;49.736;8.734;2024-03-17T08:09:25;98468.09;;;7.39;100.00
11448;BME280;43755;49.736;8.734;2024-03-17T08:11:26;98464.31;;;7.51;100.00
11448;BME280;43755;49.736;8.734;2024-03-17T08:13:28;98462.44;;;7.56;100.00
11448;BME280;43755;49.736;8.734;2024-03-17T08:15:31;98460.50;;;7.64;100.00
11448;BME280;43755;49.736;8.734;2024-03-17T08:17:33;98467.63;;;7.96;100.00
11448;BME280;43755;49.736;8.734;2024-03-17T08:19:35;98463.34;;;8.26;100.00
11448;BME280;43755;49.736;8.734;2024-03-17T08:21:38;98465.53;;;8.44;100.00
11448;BME280;43755;49.736;8.734;2024-03-17T08:23:39;98471.84;;;8.70;100.00
11448;BME280;43755;49.736;8.734;2024-03-17T08:25:51;98458.19;;;8.86;100.00
11448;BME280;43755;49.736;8.734;2024-03-17T08:27:53;98456.13;;;8.96;100.00
11448;BME280;43755;49.736;8.734;2024-03-17T08:29:54;98456.44;;;9.16;100.00
11448;BME280;43755;49.736;8.734;2024-03-17T08:31:56;98456.41;;;9.18;100.00
11448;BME280;43755;49.736;8.734;2024-03-17T08:33:58;98462.00;;;9.36;100.00
11448;BME280;43755;49.736;8.734;2024-03-17T08:36:00;98459.88;;;9.48;98.45
11448;BME280;43755;49.736;8.734;2024-03-17T08:38:03;98466.56;;;9.59;100.00
11448;BME280;43755;49.736;8.734;2024-03-17T08:40:06;98470.50;;;9.72;99.32
11448;BME280;43755;49.736;8.734;2024-03-17T08:42:08;98466.72;;;9.81;95.54
11448;BME280;43755;49.736;8.734;2024-03-17T08:44:10;98468.31;;;9.86;94.34
11448;BME280;43755;49.736;8.734;2024-03-17T08:46:11;98466.84;;;10.04;97.01
11448;BME280;43755;49.736;8.734;2024-03-17T08:48:13;98467.16;;;10.21;94.83
11448;BME280;43755;49.736;8.734;2024-03-17T08:50:15;98455.69;;;10.22;90.09
11448;BME280;43755;49.736;8.734;2024-03-17T08:52:17;98448.34;;;10.31;88.81
11448;BME280;43755;49.736;8.734;2024-03-17T08:54:19;98457.19;;;10.30;92.75
11448;BME280;43755;49.736;8.734;2024-03-17T08:56:20;98450.06;;;10.32;92.33
11448;BME280;43755;49.736;8.734;2024-03-17T08:58:23;98442.69;;;10.41;89.70
11448;BME280;43755;49.736;8.734;2024-03-17T09:00:24;98444.81;;;10.55;89.55
11448;BME280;43755;49.736;8.734;2024-03-17T09:02:26;98447.44;;;10.56;91.74
11448;BME280;43755;49.736;8.734;2024-03-17T09:04:28;98439.09;;;10.67;92.61
11448;BME280;43755;49.736;8.734;2024-03-17T09:06:30;98447.72;;;10.72;86.31
11448;BME280;43755;49.736;8.734;2024-03-17T09:08:31;98452.22;;;10.70;85.85
11448;BME280;43755;49.736;8.734;2024-03-17T09:10:38;98462.47;;;10.79;86.09
11448;BME280;43755;49.736;8.734;2024-03-17T09:12:40;98456.25;;;10.80;85.56
11448;BME280;43755;49.736;8.734;2024-03-17T09:14:42;98451.78;;;10.82;86.47
11448;BME280;43755;49.736;8.734;2024-03-17T09:16:43;98440.84;;;10.91;90.54
11448;BME280;43755;49.736;8.734;2024-03-17T09:18:44;98445.59;;;11.06;92.37
11448;BME280;43755;49.736;8.734;2024-03-17T09:20:45;98440.94;;;11.13;90.91
11448;BME280;43755;49.736;8.734;2024-03-17T09:22:47;98447.47;;;11.03;83.02
11448;BME280;43755;49.736;8.734;2024-03-17T09:24:49;98445.28;;;10.91;81.86
11448;BME280;43755;49.736;8.734;2024-03-17T09:26:52;98438.16;;;10.93;83.42
11448;BME280;43755;49.736;8.734;2024-03-17T09:28:53;98442.53;;;10.94;83.70
11448;BME280;43755;49.736;8.734;2024-03-17T09:30:55;98440.34;;;11.05;86.40
11448;BME280;43755;49.736;8.734;2024-03-17T09:32:56;98433.44;;;11.01;85.40
11448;BME280;43755;49.736;8.734;2024-03-17T09:34:58;98427.75;;;11.12;84.50
11448;BME280;43755;49.736;8.734;2024-03-17T09:37:00;98435.38;;;11.19;83.87
11448;BME280;43755;49.736;8.734;2024-03-17T09:39:01;98433.25;;;11.29;87.12
11448;BME280;43755;49.736;8.734;2024-03-17T09:41:06;98430.75;;;11.47;81.93
11448;BME280;43755;49.736;8.734;2024-03-17T09:43:11;98435.19;;;11.47;82.30
11448;BME280;43755;49.736;8.734;2024-03-17T09:45:14;98438.94;;;11.41;80.20
11448;BME280;43755;49.736;8.734;2024-03-17T09:47:19;98436.72;;;11.53;82.18
11448;BME280;43755;49.736;8.734;2024-03-17T09:49:21;98442.06;;;11.73;86.60
11448;BME280;43755;49.736;8.734;2024-03-17T09:51:24;98439.38;;;11.96;79.34
11448;BME280;43755;49.736;8.734;2024-03-17T09:53:28;98438.16;;;12.05;75.70
11448;BME280;43755;49.736;8.734;2024-03-17T09:55:30;98434.31;;;12.12;79.38
11448;BME280;43755;49.736;8.734;2024-03-17T09:57:33;98425.19;;;12.19;78.41
11448;BME280;43755;49.736;8.734;2024-03-17T09:59:36;98427.91;;;12.17;78.01
11448;BME280;43755;49.736;8.734;2024-03-17T10:01:38;98421.31;;;12.26;75.69
11448;BME280;43755;49.736;8.734;2024-03-17T10:03:40;98427.78;;;11.99;73.93
11448;BME280;43755;49.736;8.734;2024-03-17T10:05:42;98423.41;;;11.98;75.44
11448;BME280;43755;49.736;8.734;2024-03-17T10:07:44;98419.94;;;12.17;76.41
11448;BME280;43755;49.736;8.734;2024-03-17T10:09:45;98428.63;;;12.41;82.62
11448;BME280;43755;49.736;8.734;2024-03-17T10:11:47;98429.84;;;12.54;75.47
11448;BME280;43755;49.736;8.734;2024-03-17T10:14:00;98429.63;;;12.59;74.53
11448;BME280;43755;49.736;8.734;2024-03-17T10:16:03;98432.78;;;12.67;76.44
11448;BME280;43755;49.736;8.734;2024-03-17T10:18:20;98433.81;;;12.64;76.77
11448;BME280;43755;49.736;8.734;2024-03-17T10:20:24;98439.56;;;12.74;74.39
11448;BME280;43755;49.736;8.734;2024-03-17T10:22:26;98431.25;;;12.61;73.99
11448;BME280;43755;49.736;8.734;2024-03-17T10:24:28;98421.19;;;12.69;71.56
11448;BME280;43755;49.736;8.734;2024-03-17T10:26:31;98424.38;;;12.57;78.43
11448;BME280;43755;49.736;8.734;2024-03-17T10:28:31;98418.94;;;12.40;77.43
11448;BME280;43755;49.736;8.734;2024-03-17T10:30:33;98416.34;;;12.39;83.40
11448;BME280;43755;49.736;8.734;2024-03-17T10:32:36;98419.34;;;12.11;75.91
11448;BME280;43755;49.736;8.734;2024-03-17T10:34:38;98422.06;;;11.87;82.49
11448;BME280;43755;49.736;8.734;2024-03-17T10:36:39;98427.31;;;11.89;80.86
11448;BME280;43755;49.736;8.734;2024-03-17T10:38:51;98429.84;;;11.92;74.93
11448;BME280;43755;49.736;8.734;2024-03-17T10:40:53;98430.94;;;11.86;77.96
11448;BME280;43755;49.736;8.734;2024-03-17T10:42:57;98424.50;;;12.14;80.56
11448;BME280;43755;49.736;8.734;2024-03-17T10:44:59;98419.06;;;12.17;73.82
11448;BME280;43755;49.736;8.734;2024-03-17T10:47:01;98420.13;;;12.33;69.16